sensor_id;sensor_type;location;lat;lon;timestamp;pressure;altitude;pressure_sealevel;temperature;humidity
76166;BME280;65085;46.718;20.136;2022-12-10T00:01:32;99226.81;;;11.12;85.29
76166;BME280;65085;46.718;20.136;2022-12-10T00:04:36;99229.25;;;11.03;85.95
76166;BME280;65085;46.718;20.136;2022-12-10T00:07:38;99240.81;;;11.11;85.36
76166;BME280;65085;46.718;20.136;2022-12-10T00:10:41;99233.09;;;11.06;85.64
76166;BME280;65085;46.718;20.136;2022-12-10T00:13:46;99239.22;;;11.13;85.10
76166;BME280;65085;46.718;20.136;2022-12-10T00:16:49;99239.97;;;11.14;85.31
76166;BME280;65085;46.718;20.136;2022-12-10T00:19:52;99229.97;;;11.07;85.40
76166;BME280;65085;46.718;20.136;2022-12-10T00:22:54;99242.69;;;11.14;85.33
76166;BME280;65085;46.718;20.136;2022-12-10T00:26:02;99241.97;;;11.10;85.26
76166;BME280;65085;46.718;20.136;2022-12-10T00:29:08;99239.97;;;11.14;85.26
76166;BME280;65085;46.718;20.136;2022-12-10T00:32:12;99241.53;;;11.15;85.41
76166;BME280;65085;46.718;20.136;2022-12-10T00:35:15;99243.50;;;11.11;85.70
76166;BME280;65085;46.718;20.136;2022-12-10T00:38:17;99245.06;;;11.12;85.68
76166;BME280;65085;46.718;20.136;2022-12-10T00:41:23;99245.38;;;11.17;85.76
76166;BME280;65085;46.718;20.136;2022-12-10T00:44:27;99238.88;;;11.11;85.77
76166;BME280;65085;46.718;20.136;2022-12-10T00:47:30;99245.78;;;11.16;85.86
76166;BME280;65085;46.718;20.136;2022-12-10T00:50:33;99253.53;;;11.17;85.69
76166;BME280;65085;46.718;20.136;2022-12-10T00:53:37;99255.50;;;11.17;86.19
76166;BME280;65085;46.718;20.136;2022-12-10T00:56:41;99248.13;;;11.14;86.67
76166;BME280;65085;46.718;20.136;2022-12-10T00:59:45;99259.34;;;11.19;86.60
76166;BME280;65085;46.718;20.136;2022-12-10T01:02:48;99270.28;;;11.12;87.19
76166;BME280;65085;46.718;20.136;2022-12-10T01:05:52;99269.13;;;11.13;87.38
76166;BME280;65085;46.718;20.136;2022-12-10T01:08:56;99283.47;;;11.14;87.56
76166;BME280;65085;46.718;20.136;2022-12-10T01:12:02;99292.78;;;11.13;87.82
76166;BME280;65085;46.718;20.136;2022-12-10T01:15:06;99299.38;;;11.15;87.77
76166;BME280;65085;46.718;20.136;2022-12-10T01:18:09;99299.09;;;11.06;88.36
76166;BME280;65085;46.718;20.136;2022-12-10T01:21:14;99309.59;;;11.04;88.80
76166;BME280;65085;46.718;20.136;2022-12-10T01:24:17;99325.09;;;11.07;88.83
76166;BME280;65085;46.718;20.136;2022-12-10T01:27:20;99336.03;;;11.00;89.24
76166;BME280;65085;46.718;20.136;2022-12-10T01:30:24;99332.22;;;10.94;89.80
76166;BME280;65085;46.718;20.136;2022-12-10T01:33:27;99321.28;;;10.98;89.50
76166;BME280;65085;46.718;20.136;2022-12-10T01:36:32;99335.31;;;10.96;89.83
76166;BME280;65085;46.718;20.136;2022-12-10T01:39:35;99326.00;;;10.94;89.94
76166;BME280;65085;46.718;20.136;2022-12-10T01:42:38;99355.09;;;10.97;90.16
76166;BME280;65085;46.718;20.136;2022-12-10T01:45:43;99364.91;;;10.87;90.61
76166;BME280;65085;46.718;20.136;2022-12-10T01:48:46;99329.28;;;10.78;91.15
76166;BME280;65085;46.718;20.136;2022-12-10T01:51:53;99321.50;;;10.80;91.82
76166;BME280;65085;46.718;20.136;2022-12-10T01:54:57;99310.72;;;10.70;92.47
76166;BME280;65085;46.718;20.136;2022-12-10T01:58:00;99317.72;;;10.67;92.70
76166;BME280;65085;46.718;20.136;2022-12-10T02:01:08;99316.50;;;10.75;92.87
76166;BME280;65085;46.718;20.136;2022-12-10T02:04:23;99325.09;;;10.70;92.96
76166;BME280;65085;46.718;20.136;2022-12-10T02:07:43;99347.53;;;10.74;93.00
76166;BME280;65085;46.718;20.136;2022-12-10T02:10:57;99344.41;;;10.79;92.94
76166;BME280;65085;46.718;20.136;2022-12-10T02:14:04;99341.69;;;10.79;93.21
76166;BME280;65085;46.718;20.136;2022-12-10T02:17:16;99343.91;;;10.88;93.23
76166;BME280;65085;46.718;20.136;2022-12-10T02:20:24;99337.28;;;10.92;92.91
76166;BME280;65085;46.718;20.136;2022-12-10T02:23:32;99334.97;;;10.91;93.00
76166;BME280;65085;46.718;20.136;2022-12-10T02:26:44;99328.72;;;10.94;93.05
76166;BME280;65085;46.718;20.136;2022-12-10T02:29:51;99326.88;;;10.87;92.98
76166;BME280;65085;46.718;20.136;2022-12-10T02:32:56;99317.22;;;10.83;93.56
76166;BME280;65085;46.718;20.136;2022-12-10T02:36:00;99322.91;;;10.95;93.38
76166;BME280;65085;46.718;20.136;2022-12-10T02:39:08;99315.94;;;10.94;93.15
76166;BME280;65085;46.718;20.136;2022-12-10T02:42:21;99310.56;;;10.87;93.35
76166;BME280;65085;46.718;20.136;2022-12-10T02:45:30;99299.69;;;10.87;93.23
76166;BME280;65085;46.718;20.136;2022-12-10T02:48:35;99298.16;;;10.86;93.50
76166;BME280;65085;46.718;20.136;2022-12-10T02:51:39;99294.63;;;10.89;93.51
76166;BME280;65085;46.718;20.136;2022-12-10T02:54:43;99294.94;;;10.95;93.30
76166;BME280;65085;46.718;20.136;2022-12-10T02:58:10;99301.22;;;10.88;93.44
76166;BME280;65085;46.718;20.136;2022-12-10T03:01:25;99295.44;;;10.86;93.50
76166;BME280;65085;46.718;20.136;2022-12-10T03:04:41;99296.44;;;10.99;93.15
76166;BME280;65085;46.718;20.136;2022-12-10T03:07:52;99308.13;;;10.96;93.01
76166;BME280;65085;46.718;20.136;2022-12-10T03:11:01;99310.13;;;10.89;93.41
76166;BME280;65085;46.718;20.136;2022-12-10T03:14:11;99309.38;;;10.88;93.46
76166;BME280;65085;46.718;20.136;2022-12-10T03:17:17;99315.25;;;10.83;93.41
76166;BME280;65085;46.718;20.136;2022-12-10T03:20:22;99311.78;;;10.83;93.67
76166;BME280;65085;46.718;20.136;2022-12-10T03:23:28;99327.97;;;10.90;93.30
76166;BME280;65085;46.718;20.136;2022-12-10T03:26:32;99335.38;;;10.89;93.16
76166;BME280;65085;46.718;20.136;2022-12-10T03:29:38;99333.03;;;10.91;93.14
76166;BME280;65085;46.718;20.136;2022-12-10T03:32:44;99318.28;;;10.89;92.82
76166;BME280;65085;46.718;20.136;2022-12-10T03:35:48;99329.91;;;10.93;92.67
76166;BME280;65085;46.718;20.136;2022-12-10T03:38:52;99330.69;;;10.90;92.63
76166;BME280;65085;46.718;20.136;2022-12-10T03:41:55;99340.78;;;10.93;92.51
76166;BME280;65085;46.718;20.136;2022-12-10T03:44:58;99336.19;;;10.86;92.33
76166;BME280;65085;46.718;20.136;2022-12-10T03:48:03;99337.72;;;10.87;92.62
76166;BME280;65085;46.718;20.136;2022-12-10T03:51:05;99337.25;;;10.96;92.34
76166;BME280;65085;46.718;20.136;2022-12-10T03:54:08;99324.41;;;11.00;92.34
76166;BME280;65085;46.718;20.136;2022-12-10T03:57:11;99323.31;;;10.90;92.42
76166;BME280;65085;46.718;20.136;2022-12-10T04:00:14;99323.75;;;10.85;92.64
76166;BME280;65085;46.718;20.136;2022-12-10T04:03:18;99322.25;;;10.81;92.79
76166;BME280;65085;46.718;20.136;2022-12-10T04:06:21;99316.34;;;10.89;92.28
76166;BME280;65085;46.718;20.136;2022-12-10T04:09:25;99310.63;;;10.80;92.70
76166;BME280;65085;46.718;20.136;2022-12-10T04:12:28;99317.25;;;10.79;92.71
76166;BME280;65085;46.718;20.136;2022-12-10T04:15:30;99307.84;;;10.87;92.41
76166;BME280;65085;46.718;20.136;2022-12-10T04:18:53;99312.13;;;10.85;92.54
76166;BME280;65085;46.718;20.136;2022-12-10T04:22:02;99305.19;;;10.80;92.42
76166;BME280;65085;46.718;20.136;2022-12-10T04:25:23;99311.06;;;10.75;92.56
76166;BME280;65085;46.718;20.136;2022-12-10T04:28:45;99318.78;;;10.80;92.47
76166;BME280;65085;46.718;20.136;2022-12-10T04:31:47;99318.44;;;10.75;92.46
76166;BME280;65085;46.718;20.136;2022-12-10T04:34:52;99307.59;;;10.75;92.84
76166;BME280;65085;46.718;20.136;2022-12-10T04:37:54;99296.38;;;10.69;92.83
76166;BME280;65085;46.718;20.136;2022-12-10T04:40:57;99304.19;;;10.64;93.00
76166;BME280;65085;46.718;20.136;2022-12-10T04:44:00;99305.03;;;10.57;93.00
76166;BME280;65085;46.718;20.136;2022-12-10T04:47:03;99306.22;;;10.53;93.28
76166;BME280;65085;46.718;20.136;2022-12-10T04:50:08;99310.78;;;10.63;93.16
76166;BME280;65085;46.718;20.136;2022-12-10T04:53:11;99322.41;;;10.67;93.06
76166;BME280;65085;46.718;20.136;2022-12-10T04:56:14;99325.16;;;10.63;93.14
76166;BME280;65085;46.718;20.136;2022-12-10T04:59:17;99308.06;;;10.63;93.01
76166;BME280;65085;46.718;20.136;2022-12-10T05:02:38;99327.81;;;10.70;92.83
76166;BME280;65085;46.718;20.136;2022-12-10T05:05:42;99338.25;;;10.72;92.61
76166;BME280;65085;46.718;20.136;2022-12-10T05:08:46;99333.63;;;10.69;92.58
76166;BME280;65085;46.718;20.136;2022-12-10T05:11:49;99332.81;;;10.72;92.49
76166;BME280;65085;46.718;20.136;2022-12-10T05:14:51;99331.69;;;10.66;92.54
76166;BME280;65085;46.718;20.136;2022-12-10T05:17:54;99339.47;;;10.64;92.89
76166;BME280;65085;46.718;20.136;2022-12-10T05:20:59;99345.66;;;10.68;92.62
76166;BME280;65085;46.718;20.136;2022-12-10T05:24:02;99339.16;;;10.58;92.89
76166;BME280;65085;46.718;20.136;2022-12-10T05:27:05;99339.16;;;10.58;92.90
76166;BME280;65085;46.718;20.136;2022-12-10T05:30:09;99337.56;;;10.64;92.72
76166;BME280;65085;46.718;20.136;2022-12-10T05:33:12;99347.69;;;10.57;92.99
76166;BME280;65085;46.718;20.136;2022-12-10T05:36:18;99342.97;;;10.68;92.93
76166;BME280;65085;46.718;20.136;2022-12-10T05:39:21;99342.53;;;10.69;92.66
76166;BME280;65085;46.718;20.136;2022-12-10T05:42:23;99345.63;;;10.75;92.14
76166;BME280;65085;46.718;20.136;2022-12-10T05:45:26;99356.16;;;10.66;92.43
76166;BME280;65085;46.718;20.136;2022-12-10T05:48:29;99366.59;;;10.71;91.98
76166;BME280;65085;46.718;20.136;2022-12-10T05:51:35;99376.34;;;10.65;91.77
76166;BME280;65085;46.718;20.136;2022-12-10T05:54:40;99369.84;;;10.56;91.96
76166;BME280;65085;46.718;20.136;2022-12-10T05:58:01;99373.75;;;10.51;91.93
76166;BME280;65085;46.718;20.136;2022-12-10T06:01:07;99365.72;;;10.34;92.38
76166;BME280;65085;46.718;20.136;2022-12-10T06:04:10;99370.78;;;10.32;92.94
76166;BME280;65085;46.718;20.136;2022-12-10T06:07:14;99377.41;;;10.27;93.09
76166;BME280;65085;46.718;20.136;2022-12-10T06:10:17;99377.03;;;10.22;93.08
76166;BME280;65085;46.718;20.136;2022-12-10T06:13:20;99378.94;;;10.32;92.65
76166;BME280;65085;46.718;20.136;2022-12-10T06:16:24;99379.22;;;10.44;91.45
76166;BME280;65085;46.718;20.136;2022-12-10T06:19:27;99386.25;;;10.35;91.55
76166;BME280;65085;46.718;20.136;2022-12-10T06:22:33;99384.78;;;10.23;91.67
76166;BME280;65085;46.718;20.136;2022-12-10T06:25:37;99401.47;;;10.18;91.83
76166;BME280;65085;46.718;20.136;2022-12-10T06:28:59;99401.13;;;10.16;91.93
76166;BME280;65085;46.718;20.136;2022-12-10T06:32:03;99398.06;;;10.11;92.14
76166;BME280;65085;46.718;20.136;2022-12-10T06:35:06;99399.97;;;10.14;92.34
76166;BME280;65085;46.718;20.136;2022-12-10T06:38:10;99389.53;;;10.12;92.44
76166;BME280;65085;46.718;20.136;2022-12-10T06:41:14;99399.56;;;10.15;92.23
76166;BME280;65085;46.718;20.136;2022-12-10T06:44:17;99401.94;;;10.06;92.11
76166;BME280;65085;46.718;20.136;2022-12-10T06:47:20;99413.59;;;10.07;91.82
76166;BME280;65085;46.718;20.136;2022-12-10T06:50:23;99425.56;;;10.09;91.80
76166;BME280;65085;46.718;20.136;2022-12-10T06:53:27;99419.41;;;10.05;91.44
76166;BME280;65085;46.718;20.136;2022-12-10T06:56:30;99423.28;;;10.04;91.57
76166;BME280;65085;46.718;20.136;2022-12-10T06:59:33;99424.47;;;9.96;91.60
76166;BME280;65085;46.718;20.136;2022-12-10T07:02:35;99420.94;;;9.99;91.70
76166;BME280;65085;46.718;20.136;2022-12-10T07:05:38;99416.34;;;9.93;91.89
76166;BME280;65085;46.718;20.136;2022-12-10T07:08:42;99418.25;;;10.03;92.24
76166;BME280;65085;46.718;20.136;2022-12-10T07:11:45;99425.97;;;10.11;91.22
76166;BME280;65085;46.718;20.136;2022-12-10T07:14:48;99422.81;;;10.20;90.99
76166;BME280;65085;46.718;20.136;2022-12-10T07:17:51;99421.34;;;9.98;91.52
76166;BME280;65085;46.718;20.136;2022-12-10T07:20:54;99426.03;;;9.94;91.27
76166;BME280;65085;46.718;20.136;2022-12-10T07:24:01;99425.22;;;9.97;90.32
76166;BME280;65085;46.718;20.136;2022-12-10T07:27:05;99429.13;;;9.89;90.18
76166;BME280;65085;46.718;20.136;2022-12-10T07:30:09;99420.63;;;9.83;90.47
76166;BME280;65085;46.718;20.136;2022-12-10T07:33:12;99421.81;;;9.82;91.99
76166;BME280;65085;46.718;20.136;2022-12-10T07:36:15;99441.59;;;9.76;91.63
76166;BME280;65085;46.718;20.136;2022-12-10T07:39:22;99450.47;;;9.87;91.34
76166;BME280;65085;46.718;20.136;2022-12-10T07:42:25;99450.84;;;9.89;90.93
76166;BME280;65085;46.718;20.136;2022-12-10T07:45:28;99436.09;;;9.90;89.76
76166;BME280;65085;46.718;20.136;2022-12-10T07:48:31;99450.91;;;9.75;89.19
76166;BME280;65085;46.718;20.136;2022-12-10T07:51:33;99435.84;;;9.60;90.61
76166;BME280;65085;46.718;20.136;2022-12-10T07:54:39;99418.78;;;9.63;90.87
76166;BME280;65085;46.718;20.136;2022-12-10T07:57:41;99410.97;;;9.75;90.47
76166;BME280;65085;46.718;20.136;2022-12-10T08:00:44;99416.06;;;9.66;90.35
76166;BME280;65085;46.718;20.136;2022-12-10T08:03:47;99400.19;;;9.58;90.78
76166;BME280;65085;46.718;20.136;2022-12-10T08:06:54;99397.56;;;9.40;91.76
76166;BME280;65085;46.718;20.136;2022-12-10T08:09:58;99403.31;;;9.56;90.82
76166;BME280;65085;46.718;20.136;2022-12-10T08:13:01;99413.69;;;9.72;89.99
76166;BME280;65085;46.718;20.136;2022-12-10T08:16:06;99413.31;;;9.77;89.84
76166;BME280;65085;46.718;20.136;2022-12-10T08:19:09;99412.56;;;9.66;90.22
76166;BME280;65085;46.718;20.136;2022-12-10T08:22:15;99415.66;;;9.71;89.56
76166;BME280;65085;46.718;20.136;2022-12-10T08:25:19;99421.09;;;9.64;89.61
76166;BME280;65085;46.718;20.136;2022-12-10T08:28:22;99406.41;;;9.51;90.20
76166;BME280;65085;46.718;20.136;2022-12-10T08:31:26;99408.72;;;9.56;89.83
76166;BME280;65085;46.718;20.136;2022-12-10T08:34:31;99390.19;;;9.41;90.16
76166;BME280;65085;46.718;20.136;2022-12-10T08:37:34;99394.84;;;9.40;91.05
76166;BME280;65085;46.718;20.136;2022-12-10T08:40:40;99407.97;;;9.49;90.02
76166;BME280;65085;46.718;20.136;2022-12-10T08:43:43;99402.56;;;9.38;91.21
76166;BME280;65085;46.718;20.136;2022-12-10T08:46:46;99398.28;;;9.48;90.43
76166;BME280;65085;46.718;20.136;2022-12-10T08:49:49;99407.59;;;9.40;90.26
76166;BME280;65085;46.718;20.136;2022-12-10T08:52:52;99405.69;;;9.44;89.93
76166;BME280;65085;46.718;20.136;2022-12-10T08:55:56;99406.44;;;9.48;90.23
76166;BME280;65085;46.718;20.136;2022-12-10T08:58:59;99395.56;;;9.51;90.14
76166;BME280;65085;46.718;20.136;2022-12-10T09:02:02;99410.66;;;9.52;89.32
76166;BME280;65085;46.718;20.136;2022-12-10T09:05:06;99404.84;;;9.57;89.11
76166;BME280;65085;46.718;20.136;2022-12-10T09:08:10;99392.50;;;9.42;89.98
76166;BME280;65085;46.718;20.136;2022-12-10T09:11:17;99398.31;;;9.41;89.89
76166;BME280;65085;46.718;20.136;2022-12-10T09:14:20;99398.72;;;9.36;91.04
76166;BME280;65085;46.718;20.136;2022-12-10T09:17:22;99393.63;;;9.59;89.61
76166;BME280;65085;46.718;20.136;2022-12-10T09:20:25;99397.06;;;9.70;89.37
76166;BME280;65085;46.718;20.136;2022-12-10T09:23:30;99400.94;;;9.65;89.40
76166;BME280;65085;46.718;20.136;2022-12-10T09:26:34;99380.09;;;9.52;89.78
76166;BME280;65085;46.718;20.136;2022-12-10T09:29:37;99371.09;;;9.72;88.94
76166;BME280;65085;46.718;20.136;2022-12-10T09:32:39;99378.78;;;9.81;88.68
76166;BME280;65085;46.718;20.136;2022-12-10T09:35:43;99372.66;;;9.70;88.37
76166;BME280;65085;46.718;20.136;2022-12-10T09:38:47;99366.84;;;9.71;89.31
76166;BME280;65085;46.718;20.136;2022-12-10T09:42:03;99364.81;;;9.89;87.46
76166;BME280;65085;46.718;20.136;2022-12-10T09:45:15;99365.56;;;9.90;87.68
76166;BME280;65085;46.718;20.136;2022-12-10T09:48:25;99363.66;;;9.87;88.35
76166;BME280;65085;46.718;20.136;2022-12-10T09:51:34;99363.34;;;9.71;88.77
76166;BME280;65085;46.718;20.136;2022-12-10T09:54:41;99350.09;;;9.87;88.32
76166;BME280;65085;46.718;20.136;2022-12-10T09:57:50;99350.78;;;10.01;88.04
76166;BME280;65085;46.718;20.136;2022-12-10T10:00:56;99348.53;;;9.89;88.31
76166;BME280;65085;46.718;20.136;2022-12-10T10:04:00;99334.16;;;9.96;87.17
76166;BME280;65085;46.718;20.136;2022-12-10T10:07:05;99331.19;;;9.69;89.37
76166;BME280;65085;46.718;20.136;2022-12-10T10:10:19;99317.22;;;9.74;88.90
76166;BME280;65085;46.718;20.136;2022-12-10T10:13:31;99317.53;;;9.87;88.09
76166;BME280;65085;46.718;20.136;2022-12-10T10:16:40;99314.00;;;9.93;87.37
76166;BME280;65085;46.718;20.136;2022-12-10T10:19:48;99316.38;;;9.84;87.33
76166;BME280;65085;46.718;20.136;2022-12-10T10:22:53;99325.69;;;9.83;88.17
76166;BME280;65085;46.718;20.136;2022-12-10T10:25:58;99323.00;;;9.80;87.53
76166;BME280;65085;46.718;20.136;2022-12-10T10:29:05;99306.78;;;9.73;88.32
76166;BME280;65085;46.718;20.136;2022-12-10T10:32:17;99293.94;;;9.84;87.16
76166;BME280;65085;46.718;20.136;2022-12-10T10:35:27;99294.00;;;9.73;87.77
76166;BME280;65085;46.718;20.136;2022-12-10T10:38:29;99294.38;;;9.72;87.68
76166;BME280;65085;46.718;20.136;2022-12-10T10:41:35;99291.66;;;9.75;87.79
76166;BME280;65085;46.718;20.136;2022-12-10T10:44:43;99286.34;;;9.54;88.51
76166;BME280;65085;46.718;20.136;2022-12-10T10:47:46;99289.47;;;9.49;88.68
76166;BME280;65085;46.718;20.136;2022-12-10T10:50:51;99291.75;;;9.58;87.98
76166;BME280;65085;46.718;20.136;2022-12-10T10:53:54;99293.00;;;9.39;87.64
76166;BME280;65085;46.718;20.136;2022-12-10T10:56:58;99302.75;;;9.23;87.57
76166;BME280;65085;46.718;20.136;2022-12-10T11:00:10;99298.13;;;9.23;86.66
76166;BME280;65085;46.718;20.136;2022-12-10T11:03:19;99298.16;;;9.13;87.09
76166;BME280;65085;46.718;20.136;2022-12-10T11:06:22;99298.97;;;8.99;87.20
76166;BME280;65085;46.718;20.136;2022-12-10T11:09:28;99303.97;;;9.04;86.84
76166;BME280;65085;46.718;20.136;2022-12-10T11:12:37;99315.13;;;9.20;86.71
76166;BME280;65085;46.718;20.136;2022-12-10T11:15:42;99305.94;;;8.97;87.19
76166;BME280;65085;46.718;20.136;2022-12-10T11:18:54;99298.19;;;8.99;87.90
76166;BME280;65085;46.718;20.136;2022-12-10T11:22:17;99297.03;;;8.96;87.57
76166;BME280;65085;46.718;20.136;2022-12-10T11:25:31;99303.56;;;9.09;87.65
76166;BME280;65085;46.718;20.136;2022-12-10T11:28:43;99301.22;;;9.18;87.31
76166;BME280;65085;46.718;20.136;2022-12-10T11:32:01;99290.00;;;9.23;86.46
76166;BME280;65085;46.718;20.136;2022-12-10T11:35:19;99290.75;;;9.24;86.36
76166;BME280;65085;46.718;20.136;2022-12-10T11:38:26;99275.66;;;9.23;86.30
76166;BME280;65085;46.718;20.136;2022-12-10T11:41:37;99268.28;;;9.27;86.88
76166;BME280;65085;46.718;20.136;2022-12-10T11:44:49;99271.38;;;9.32;86.23
76166;BME280;65085;46.718;20.136;2022-12-10T11:48:08;99276.84;;;9.18;87.22
76166;BME280;65085;46.718;20.136;2022-12-10T11:51:20;99257.91;;;9.11;87.63
76166;BME280;65085;46.718;20.136;2022-12-10T11:54:42;99258.25;;;9.20;87.19
76166;BME280;65085;46.718;20.136;2022-12-10T11:58:01;99264.47;;;9.17;87.38
76166;BME280;65085;46.718;20.136;2022-12-10T12:01:12;99264.13;;;9.05;87.96
76166;BME280;65085;46.718;20.136;2022-12-10T12:04:28;99246.72;;;8.99;87.27
76166;BME280;65085;46.718;20.136;2022-12-10T12:07:39;99236.69;;;8.92;87.44
76166;BME280;65085;46.718;20.136;2022-12-10T12:11:11;99223.56;;;8.84;87.48
76166;BME280;65085;46.718;20.136;2022-12-10T12:14:21;99212.38;;;8.78;88.35
76166;BME280;65085;46.718;20.136;2022-12-10T12:17:28;99208.44;;;8.90;87.68
76166;BME280;65085;46.718;20.136;2022-12-10T12:20:38;99200.00;;;8.74;88.24
76166;BME280;65085;46.718;20.136;2022-12-10T12:23:46;99195.75;;;8.69;88.44
76166;BME280;65085;46.718;20.136;2022-12-10T12:26:54;99182.94;;;8.84;88.06
76166;BME280;65085;46.718;20.136;2022-12-10T12:30:04;99172.91;;;8.81;87.87
76166;BME280;65085;46.718;20.136;2022-12-10T12:33:11;99168.63;;;8.83;88.35
76166;BME280;65085;46.718;20.136;2022-12-10T12:36:19;99167.84;;;8.86;88.13
76166;BME280;65085;46.718;20.136;2022-12-10T12:39:28;99159.03;;;8.72;89.06
76166;BME280;65085;46.718;20.136;2022-12-10T12:42:38;99160.53;;;8.80;88.34
76166;BME280;65085;46.718;20.136;2022-12-10T12:45:45;99150.47;;;8.77;88.54
76166;BME280;65085;46.718;20.136;2022-12-10T12:48:54;99152.00;;;8.81;88.55
76166;BME280;65085;46.718;20.136;2022-12-10T12:52:02;99158.63;;;8.70;88.30
76166;BME280;65085;46.718;20.136;2022-12-10T12:55:16;99171.78;;;8.68;88.08
76166;BME280;65085;46.718;20.136;2022-12-10T12:58:27;99192.28;;;8.65;88.36
76166;BME280;65085;46.718;20.136;2022-12-10T13:01:37;99190.38;;;8.62;88.69
76166;BME280;65085;46.718;20.136;2022-12-10T13:04:42;99183.81;;;8.49;89.46
76166;BME280;65085;46.718;20.136;2022-12-10T13:11:32;99183.81;;;8.53;90.12
76166;BME280;65085;46.718;20.136;2022-12-10T13:14:36;99171.09;;;8.39;90.45
76166;BME280;65085;46.718;20.136;2022-12-10T13:22:06;99159.16;;;8.23;90.37
76166;BME280;65085;46.718;20.136;2022-12-10T13:25:14;99148.72;;;8.32;90.54
76166;BME280;65085;46.718;20.136;2022-12-10T13:28:26;99156.03;;;8.38;89.76
76166;BME280;65085;46.718;20.136;2022-12-10T13:31:37;99147.13;;;8.34;90.03
76166;BME280;65085;46.718;20.136;2022-12-10T13:34:40;99139.41;;;8.36;89.92
76166;BME280;65085;46.718;20.136;2022-12-10T13:37:55;99119.69;;;8.39;89.80
76166;BME280;65085;46.718;20.136;2022-12-10T13:41:03;99101.56;;;8.29;89.93
76166;BME280;65085;46.718;20.136;2022-12-10T13:44:33;99084.53;;;8.36;90.36
76166;BME280;65085;46.718;20.136;2022-12-10T13:47:44;99078.75;;;8.34;90.57
76166;BME280;65085;46.718;20.136;2022-12-10T13:50:49;99071.44;;;8.13;90.69
76166;BME280;65085;46.718;20.136;2022-12-10T13:54:02;99075.66;;;8.35;90.45
76166;BME280;65085;46.718;20.136;2022-12-10T13:57:21;99077.19;;;8.33;90.39
76166;BME280;65085;46.718;20.136;2022-12-10T14:00:32;99076.06;;;8.27;90.12
76166;BME280;65085;46.718;20.136;2022-12-10T14:03:52;99084.94;;;8.27;90.63
76166;BME280;65085;46.718;20.136;2022-12-10T14:07:01;99093.06;;;8.27;89.67
76166;BME280;65085;46.718;20.136;2022-12-10T14:10:13;99100.41;;;8.13;89.98
76166;BME280;65085;46.718;20.136;2022-12-10T14:13:20;99106.19;;;8.22;89.97
76166;BME280;65085;46.718;20.136;2022-12-10T14:16:26;99112.03;;;8.20;89.12
76166;BME280;65085;46.718;20.136;2022-12-10T14:19:30;99117.41;;;8.13;90.26
76166;BME280;65085;46.718;20.136;2022-12-10T14:22:38;99117.44;;;8.06;90.23
76166;BME280;65085;46.718;20.136;2022-12-10T14:25:42;99115.47;;;8.10;90.38
76166;BME280;65085;46.718;20.136;2022-12-10T14:28:49;99105.44;;;8.04;90.02
76166;BME280;65085;46.718;20.136;2022-12-10T14:31:52;99102.38;;;8.05;90.10
76166;BME280;65085;46.718;20.136;2022-12-10T14:34:56;99116.28;;;8.00;89.95
76166;BME280;65085;46.718;20.136;2022-12-10T14:38:00;99108.97;;;7.90;90.54
76166;BME280;65085;46.718;20.136;2022-12-10T14:41:04;99109.75;;;7.84;91.00
76166;BME280;65085;46.718;20.136;2022-12-10T14:44:13;99098.94;;;7.77;91.00
76166;BME280;65085;46.718;20.136;2022-12-10T14:47:18;99095.47;;;7.69;91.25
76166;BME280;65085;46.718;20.136;2022-12-10T14:50:21;99095.09;;;7.60;91.43
76166;BME280;65085;46.718;20.136;2022-12-10T14:53:26;99112.09;;;7.57;91.71
76166;BME280;65085;46.718;20.136;2022-12-10T14:56:32;99130.63;;;7.59;91.36
76166;BME280;65085;46.718;20.136;2022-12-10T14:59:40;99146.44;;;7.64;91.05
76166;BME280;65085;46.718;20.136;2022-12-10T15:02:45;99151.84;;;7.64;90.87
76166;BME280;65085;46.718;20.136;2022-12-10T15:05:54;99139.09;;;7.64;91.38
76166;BME280;65085;46.718;20.136;2022-12-10T15:08:57;99127.88;;;7.66;90.85
76166;BME280;65085;46.718;20.136;2022-12-10T15:12:01;99129.84;;;7.62;90.74
76166;BME280;65085;46.718;20.136;2022-12-10T15:15:10;99125.59;;;7.64;90.14
76166;BME280;65085;46.718;20.136;2022-12-10T15:18:16;99110.16;;;7.51;90.27
76166;BME280;65085;46.718;20.136;2022-12-10T15:21:22;99124.03;;;7.35;91.29
76166;BME280;65085;46.718;20.136;2022-12-10T15:24:27;99134.84;;;7.39;90.90
76166;BME280;65085;46.718;20.136;2022-12-10T15:27:30;99125.19;;;7.41;90.68
76166;BME280;65085;46.718;20.136;2022-12-10T15:30:37;99117.09;;;7.48;90.48
76166;BME280;65085;46.718;20.136;2022-12-10T15:33:43;99113.59;;;7.34;90.73
76166;BME280;65085;46.718;20.136;2022-12-10T15:36:49;99099.72;;;7.35;90.86
76166;BME280;65085;46.718;20.136;2022-12-10T15:39:54;99100.09;;;7.34;90.90
76166;BME280;65085;46.718;20.136;2022-12-10T15:43:10;99100.50;;;7.25;91.08
76166;BME280;65085;46.718;20.136;2022-12-10T15:46:17;99105.50;;;7.34;90.88
76166;BME280;65085;46.718;20.136;2022-12-10T15:49:20;99101.66;;;7.35;91.03
76166;BME280;65085;46.718;20.136;2022-12-10T15:52:25;99092.78;;;7.27;91.79
76166;BME280;65085;46.718;20.136;2022-12-10T15:55:28;99068.09;;;7.39;90.84
76166;BME280;65085;46.718;20.136;2022-12-10T15:58:31;99039.53;;;7.35;90.93
76166;BME280;65085;46.718;20.136;2022-12-10T16:01:35;99027.56;;;7.36;90.95
76166;BME280;65085;46.718;20.136;2022-12-10T16:04:38;99027.56;;;7.29;91.33
76166;BME280;65085;46.718;20.136;2022-12-10T16:07:41;99011.75;;;7.31;91.36
76166;BME280;65085;46.718;20.136;2022-12-10T16:10:45;99024.88;;;7.18;92.06
76166;BME280;65085;46.718;20.136;2022-12-10T16:13:50;99026.03;;;7.24;92.05
76166;BME280;65085;46.718;20.136;2022-12-10T16:16:55;99040.28;;;7.28;91.92
76166;BME280;65085;46.718;20.136;2022-12-10T16:19:58;99031.81;;;7.33;92.39
76166;BME280;65085;46.718;20.136;2022-12-10T16:23:01;99005.53;;;7.44;91.89
76166;BME280;65085;46.718;20.136;2022-12-10T16:26:12;99016.34;;;7.34;91.69
76166;BME280;65085;46.718;20.136;2022-12-10T16:29:16;99022.16;;;7.39;91.58